createdAt,value
2018-08-04T00:00:14.006Z,24.40
2018-08-04T00:01:13.954Z,24.41
2018-08-04T00:02:13.937Z,24.34
2018-08-04T00:03:13.927Z,24.33
2018-08-04T00:04:13.921Z,24.29
2018-08-04T00:05:13.919Z,24.22
2018-08-04T00:06:13.944Z,24.28
2018-08-04T00:07:13.890Z,24.28
2018-08-04T00:08:13.709Z,24.25
2018-08-04T00:09:13.867Z,24.26
2018-08-04T00:10:13.852Z,24.26
2018-08-04T00:11:14.045Z,24.21
2018-08-04T00:12:13.834Z,24.31
2018-08-04T00:13:13.712Z,24.26
2018-08-04T00:14:13.809Z,24.22
2018-08-04T00:15:13.800Z,24.18
2018-08-04T00:16:13.793Z,24.22
2018-08-04T00:17:13.837Z,24.21
2018-08-04T00:18:13.776Z,24.18
2018-08-04T00:19:13.752Z,24.19
2018-08-04T00:20:13.747Z,24.19
2018-08-04T00:21:13.734Z,24.19
2018-08-04T00:22:13.727Z,24.15
2018-08-04T00:23:13.750Z,24.11
2018-08-04T00:24:13.705Z,24.16
2018-08-04T00:25:13.560Z,24.13
2018-08-04T00:26:13.682Z,24.13
2018-08-04T00:27:13.683Z,24.10
2018-08-04T00:28:13.706Z,24.18
2018-08-04T00:29:13.644Z,24.11
2018-08-04T00:30:13.658Z,24.15
2018-08-04T00:31:13.643Z,24.15
2018-08-04T00:32:13.620Z,24.11
2018-08-04T00:33:13.442Z,24.13
2018-08-04T00:34:13.789Z,24.15
2018-08-04T00:35:13.584Z,24.08
2018-08-04T00:36:13.574Z,24.15
2018-08-04T00:37:13.568Z,24.19
2018-08-04T00:38:13.540Z,24.18
2018-08-04T00:39:13.533Z,24.13
2018-08-04T00:40:13.575Z,24.16
2018-08-04T00:41:13.526Z,24.13
2018-08-04T00:42:13.505Z,24.25
2018-08-04T00:43:13.492Z,24.13
2018-08-04T00:44:13.485Z,24.08
2018-08-04T00:45:13.636Z,24.16
2018-08-04T00:46:13.463Z,24.08
2018-08-04T00:47:13.446Z,24.13
2018-08-04T00:48:13.442Z,24.19
2018-08-04T00:49:13.424Z,24.25
2018-08-04T00:50:13.419Z,24.13
2018-08-04T00:51:13.452Z,24.19
2018-08-04T00:52:13.397Z,24.19
2018-08-04T00:53:13.375Z,24.15
2018-08-04T00:54:13.374Z,24.04
2018-08-04T00:55:13.369Z,24.07
2018-08-04T00:56:13.415Z,24.19
2018-08-04T00:57:13.340Z,24.18
2018-08-04T00:58:13.339Z,24.13
2018-08-04T00:59:13.319Z,24.16
2018-08-04T01:00:13.317Z,24.16
2018-08-04T01:01:13.300Z,24.11
2018-08-04T01:02:13.482Z,24.07
2018-08-04T01:03:13.273Z,24.15
2018-08-04T01:04:13.273Z,24.07
2018-08-04T01:05:13.259Z,24.08
2018-08-04T01:06:13.242Z,24.07
2018-08-04T01:07:13.233Z,24.04
2018-08-04T01:08:13.265Z,24.01
2018-08-04T01:09:13.214Z,24.01
2018-08-04T01:10:13.225Z,24.00
2018-08-04T01:11:13.192Z,23.98
2018-08-04T01:12:13.177Z,24.03
2018-08-04T01:13:13.262Z,23.92
2018-08-04T01:14:13.159Z,23.94
2018-08-04T01:15:13.152Z,23.86
2018-08-04T01:16:13.136Z,23.94
2018-08-04T01:17:13.124Z,23.94
2018-08-04T01:18:13.156Z,23.92
2018-08-04T01:19:13.106Z,23.84
2018-08-04T01:20:13.089Z,23.97
2018-08-04T01:21:13.085Z,23.97
2018-08-04T01:22:13.080Z,23.84
2018-08-04T01:23:13.195Z,23.88
2018-08-04T01:24:13.051Z,23.85
2018-08-04T01:25:13.045Z,23.79
2018-08-04T01:26:13.027Z,23.74
2018-08-04T01:27:13.021Z,23.81
2018-08-04T01:28:13.009Z,23.74
2018-08-04T01:29:13.197Z,23.71
2018-08-04T01:30:12.989Z,23.70
2018-08-04T01:31:12.970Z,23.71
2018-08-04T01:32:12.965Z,23.71
2018-08-04T01:33:12.949Z,23.79
2018-08-04T01:34:13.982Z,23.76
2018-08-04T01:35:12.974Z,23.74
2018-08-04T01:36:12.925Z,23.70
2018-08-04T01:37:12.913Z,23.67
2018-08-04T01:38:12.896Z,23.73
2018-08-04T01:39:12.889Z,23.67
2018-08-04T01:40:12.918Z,23.76
2018-08-04T01:41:12.864Z,23.74
2018-08-04T01:42:12.855Z,23.70
2018-08-04T01:43:12.851Z,23.63
2018-08-04T01:44:12.834Z,23.56
2018-08-04T01:45:12.860Z,23.45
2018-08-04T01:46:12.812Z,23.33
2018-08-04T01:47:12.802Z,23.28
2018-08-04T01:48:12.790Z,23.33
2018-08-04T01:49:12.780Z,23.29
2018-08-04T01:50:12.816Z,23.31
2018-08-04T01:51:12.761Z,23.33
2018-08-04T01:52:12.779Z,23.34
2018-08-04T01:53:12.732Z,23.39
2018-08-04T01:54:12.732Z,23.26
2018-08-04T01:55:12.711Z,23.23
2018-08-04T01:56:12.762Z,23.33
2018-08-04T01:57:12.699Z,23.22
2018-08-04T01:58:12.682Z,23.23
2018-08-04T01:59:12.688Z,23.17
2018-08-04T02:00:12.655Z,23.11
2018-08-04T02:01:12.649Z,23.10
2018-08-04T02:02:12.679Z,23.03
2018-08-04T02:03:12.626Z,23.04
2018-08-04T02:04:12.615Z,22.99
2018-08-04T02:05:12.606Z,23.10
2018-08-04T02:06:12.586Z,23.07
2018-08-04T02:07:12.646Z,23.15
2018-08-04T02:08:12.574Z,23.22
2018-08-04T02:09:12.566Z,23.25
2018-08-04T02:10:13.542Z,23.25
2018-08-04T02:11:12.547Z,23.28
2018-08-04T02:12:12.533Z,23.33
2018-08-04T02:13:12.565Z,23.41
2018-08-04T02:14:12.510Z,23.42
2018-08-04T02:15:12.494Z,23.37
2018-08-04T02:16:12.479Z,23.48
2018-08-04T02:17:12.483Z,23.45
2018-08-04T02:18:12.616Z,23.41
2018-08-04T02:19:12.445Z,23.42
2018-08-04T02:20:12.449Z,23.41
2018-08-04T02:21:12.427Z,23.44
2018-08-04T02:22:12.420Z,23.46
2018-08-04T02:23:12.408Z,23.42
2018-08-04T02:24:12.454Z,23.29
2018-08-04T02:25:12.387Z,23.42
2018-08-04T02:26:12.374Z,23.33
2018-08-04T02:27:12.366Z,23.39
2018-08-04T02:28:12.356Z,23.33
2018-08-04T02:29:12.350Z,23.33
2018-08-04T02:30:12.382Z,23.28
2018-08-04T02:31:12.342Z,23.31
2018-08-04T02:32:12.321Z,23.31
2018-08-04T02:33:12.296Z,23.28
2018-08-04T02:34:12.286Z,23.36
2018-08-04T02:35:12.328Z,23.34
2018-08-04T02:36:12.269Z,23.36
2018-08-04T02:37:12.265Z,23.31
2018-08-04T02:38:12.249Z,23.36
2018-08-04T02:39:12.237Z,23.29
2018-08-04T02:40:12.374Z,23.34
2018-08-04T02:41:12.216Z,23.26
2018-08-04T02:42:12.201Z,23.41
2018-08-04T02:43:12.199Z,23.39
2018-08-04T02:44:12.179Z,23.37
2018-08-04T02:45:12.175Z,23.37
2018-08-04T02:46:12.222Z,23.36
2018-08-04T02:47:12.157Z,23.36
2018-08-04T02:48:12.139Z,23.36
2018-08-04T02:49:12.115Z,23.23
2018-08-04T02:50:12.125Z,23.34
2018-08-04T02:51:12.103Z,23.25
2018-08-04T02:52:12.141Z,23.22
2018-08-04T02:53:12.082Z,23.25
2018-08-04T02:54:12.075Z,23.22
2018-08-04T02:55:12.057Z,23.21
2018-08-04T02:56:12.056Z,23.31
2018-08-04T02:57:12.093Z,23.26
2018-08-04T02:58:12.037Z,23.17
2018-08-04T02:59:13.021Z,23.18
2018-08-04T03:00:12.007Z,23.21
2018-08-04T03:01:12.000Z,23.10
2018-08-04T03:02:12.193Z,23.10
2018-08-04T03:03:11.974Z,23.01
2018-08-04T03:04:11.955Z,23.01
2018-08-04T03:05:11.957Z,22.86
2018-08-04T03:06:11.938Z,22.77
2018-08-04T03:07:11.936Z,22.62
2018-08-04T03:08:11.988Z,22.58
2018-08-04T03:09:11.914Z,22.52
2018-08-04T03:10:11.902Z,22.49
2018-08-04T03:11:11.891Z,22.40
2018-08-04T03:12:11.895Z,22.33
2018-08-04T03:13:11.892Z,22.38
2018-08-04T03:14:11.764Z,22.43
2018-08-04T03:15:11.854Z,22.36
2018-08-04T03:16:11.833Z,22.18
2018-08-04T03:17:11.833Z,22.09
2018-08-04T03:18:11.822Z,22.03
2018-08-04T03:19:11.952Z,21.96
2018-08-04T03:20:11.796Z,21.85
2018-08-04T03:21:11.789Z,21.80
2018-08-04T03:22:11.769Z,21.71
2018-08-04T03:23:11.766Z,21.62
2018-08-04T03:24:11.745Z,21.58
2018-08-04T03:25:11.782Z,21.51
2018-08-04T03:26:11.737Z,21.50
2018-08-04T03:27:11.712Z,21.48
2018-08-04T03:28:11.710Z,21.50
2018-08-04T03:29:11.706Z,21.58
2018-08-04T03:30:11.839Z,21.60
2018-08-04T03:31:11.670Z,21.69
2018-08-04T03:32:11.659Z,21.80
2018-08-04T03:33:11.667Z,21.80
2018-08-04T03:34:11.637Z,21.91
2018-08-04T03:35:11.631Z,21.96
2018-08-04T03:36:11.831Z,22.03
2018-08-04T03:37:11.608Z,22.07
2018-08-04T03:38:11.595Z,22.13
2018-08-04T03:39:11.583Z,22.07
2018-08-04T03:40:11.577Z,22.13
2018-08-04T03:41:11.569Z,22.19
2018-08-04T03:42:11.597Z,22.28
2018-08-04T03:43:11.547Z,22.33
2018-08-04T03:44:11.542Z,22.25
2018-08-04T03:45:11.516Z,22.33
2018-08-04T03:46:11.508Z,22.33
2018-08-04T03:47:11.549Z,22.38
2018-08-04T03:48:11.491Z,22.43
2018-08-04T03:49:11.477Z,22.40
2018-08-04T03:50:11.465Z,22.49
2018-08-04T03:51:11.453Z,22.46
2018-08-04T03:52:11.495Z,22.40
2018-08-04T03:53:11.445Z,22.56
2018-08-04T03:54:11.425Z,22.62
2018-08-04T03:55:11.408Z,22.58
2018-08-04T03:56:11.405Z,22.59
2018-08-04T03:57:11.392Z,22.62
2018-08-04T03:58:11.430Z,22.62
2018-08-04T03:59:11.368Z,22.61
2018-08-04T04:00:11.362Z,22.59
2018-08-04T04:01:11.344Z,22.61
2018-08-04T04:02:11.337Z,22.64
2018-08-04T04:03:11.324Z,22.62
2018-08-04T04:04:11.352Z,22.59
2018-08-04T04:05:11.313Z,22.61
2018-08-04T04:06:11.298Z,22.61
2018-08-04T04:07:11.290Z,22.66
2018-08-04T04:08:11.273Z,22.59
2018-08-04T04:09:11.307Z,22.66
2018-08-04T04:10:11.236Z,22.61
2018-08-04T04:11:11.241Z,22.58
2018-08-04T04:12:11.229Z,22.58
2018-08-04T04:13:11.211Z,22.58
2018-08-04T04:14:11.248Z,22.58
2018-08-04T04:15:11.190Z,22.59
2018-08-04T04:16:11.187Z,22.43
2018-08-04T04:17:11.186Z,22.30
2018-08-04T04:18:11.167Z,22.16
2018-08-04T04:19:11.077Z,22.11
2018-08-04T04:20:11.143Z,22.12
2018-08-04T04:21:11.133Z,21.97
2018-08-04T04:22:11.129Z,21.80
2018-08-04T04:23:11.108Z,21.66
2018-08-04T04:24:10.971Z,21.51
2018-08-04T04:25:11.103Z,21.50
2018-08-04T04:26:11.076Z,21.40
2018-08-04T04:27:11.075Z,21.40
2018-08-04T04:28:11.058Z,21.38
2018-08-04T04:29:11.095Z,21.37
2018-08-04T04:30:11.034Z,21.44
2018-08-04T04:31:11.033Z,21.51
2018-08-04T04:32:11.016Z,21.59
2018-08-04T04:33:10.999Z,21.66
2018-08-04T04:34:11.013Z,21.74
2018-08-04T04:35:10.980Z,21.78
2018-08-04T04:36:10.974Z,21.85
2018-08-04T04:37:10.959Z,21.88
2018-08-04T04:38:10.783Z,21.98
2018-08-04T04:39:10.973Z,21.93
2018-08-04T04:40:10.928Z,21.85
2018-08-04T04:41:10.916Z,21.82
2018-08-04T04:42:10.900Z,21.93
2018-08-04T04:43:10.893Z,21.96
2018-08-04T04:44:10.941Z,22.03
2018-08-04T04:45:10.880Z,22.23
2018-08-04T04:46:10.694Z,22.23
2018-08-04T04:47:10.859Z,22.34
2018-08-04T04:48:10.839Z,22.34
2018-08-04T04:49:10.845Z,22.46
2018-08-04T04:50:10.871Z,22.52
2018-08-04T04:51:10.820Z,22.59
2018-08-04T04:52:10.800Z,22.62
2018-08-04T04:53:10.788Z,22.59
2018-08-04T04:54:10.784Z,22.78
2018-08-04T09:01:05.587Z,42.88
2018-08-04T09:02:05.558Z,43.22
2018-08-04T09:03:05.553Z,43.67
2018-08-04T09:04:05.523Z,43.89
2018-08-04T09:05:05.501Z,43.89
2018-08-04T09:06:05.495Z,44.12
2018-08-04T09:07:05.536Z,43.81
2018-08-04T09:08:05.608Z,43.74
2018-08-04T09:09:05.475Z,43.48
2018-08-04T09:10:05.464Z,43.76
2018-08-04T09:11:05.468Z,44.12
2018-08-04T09:12:05.490Z,44.46
2018-08-04T09:13:05.448Z,44.88
2018-08-04T09:14:05.438Z,44.50
2018-08-04T09:15:05.448Z,43.74
2018-08-04T09:16:05.440Z,42.68
2018-08-04T09:17:05.868Z,42.76
2018-08-04T09:18:05.412Z,42.79
2018-08-04T09:19:05.408Z,43.20
2018-08-04T09:20:05.399Z,43.44
2018-08-04T09:21:05.385Z,43.76
2018-08-04T09:22:05.384Z,43.82
2018-08-04T09:23:05.489Z,43.40
2018-08-04T09:24:05.531Z,43.20
2018-08-04T09:25:05.360Z,43.29
2018-08-04T09:26:05.356Z,43.63
2018-08-04T09:27:05.345Z,43.74
2018-08-04T09:28:05.353Z,43.90
2018-08-04T09:29:05.517Z,44.16
2018-08-04T09:30:05.332Z,44.23
2018-08-04T09:31:05.480Z,43.92
2018-08-04T09:32:05.468Z,43.49
2018-08-04T09:33:05.512Z,43.55
2018-08-04T09:34:05.422Z,43.74
2018-08-04T09:35:05.974Z,44.01
2018-08-04T09:36:05.329Z,43.02
2018-08-04T09:37:05.389Z,42.38
2018-08-04T09:38:05.337Z,41.97
2018-08-04T09:39:05.311Z,42.12
2018-08-04T09:40:05.508Z,42.23
2018-08-04T09:41:05.356Z,42.35
2018-08-04T09:42:05.445Z,42.78
2018-08-04T09:43:05.418Z,42.90
2018-08-04T09:44:05.227Z,43.30
2018-08-04T09:45:05.430Z,43.64
2018-08-04T09:46:05.388Z,43.94
2018-08-04T09:47:05.370Z,43.97
2018-08-04T09:48:05.372Z,43.32
2018-08-04T09:49:05.537Z,42.91
2018-08-04T09:50:05.356Z,42.67
2018-08-04T09:51:05.368Z,42.76
2018-08-04T09:52:05.384Z,41.76
2018-08-04T09:53:05.433Z,41.04
2018-08-04T09:54:05.522Z,41.61
2018-08-04T09:55:05.246Z,42.01
2018-08-04T09:56:05.662Z,42.68
2018-08-04T09:57:05.167Z,42.63
2018-08-04T09:58:05.291Z,42.57
2018-08-04T09:59:05.347Z,42.15
2018-08-04T10:00:05.649Z,42.07
2018-08-04T10:01:07.109Z,41.64
2018-08-04T10:02:05.292Z,41.92
2018-08-04T10:03:05.173Z,42.31
2018-08-04T10:04:05.317Z,42.72
2018-08-04T10:05:05.088Z,42.93
2018-08-04T10:06:06.572Z,43.06
2018-08-04T10:07:05.241Z,42.65
2018-08-04T10:08:05.230Z,41.92
2018-08-04T10:09:05.220Z,40.70
2018-08-04T10:10:05.212Z,40.68
2018-08-04T10:11:05.270Z,41.13
2018-08-04T10:12:05.213Z,41.25
2018-08-04T10:13:05.191Z,41.23
2018-08-04T10:14:05.201Z,41.34
2018-08-04T10:15:05.165Z,41.52
2018-08-04T10:16:05.002Z,41.96
2018-08-04T10:17:05.211Z,41.88
2018-08-04T10:18:05.158Z,41.62
2018-08-04T10:19:05.178Z,41.68
2018-08-04T10:20:05.133Z,42.13
2018-08-04T10:21:05.134Z,42.53
2018-08-04T10:22:05.188Z,42.79
2018-08-04T10:23:05.118Z,42.67
2018-08-04T10:24:05.103Z,42.28
2018-08-04T10:25:05.108Z,41.96
2018-08-04T10:26:05.099Z,42.06
2018-08-04T10:27:05.080Z,42.03
2018-08-04T10:28:05.226Z,42.12
2018-08-04T10:29:05.060Z,42.46
2018-08-04T10:30:05.062Z,42.67
2018-08-04T10:31:05.067Z,42.41
2018-08-04T10:32:05.175Z,42.35
2018-08-04T10:33:05.051Z,40.99
2018-08-04T10:34:05.087Z,39.28
2018-08-04T10:35:05.034Z,38.23
2018-08-04T10:36:05.030Z,37.91
2018-08-04T10:37:04.850Z,37.62
2018-08-04T10:38:05.010Z,37.98
2018-08-04T10:39:05.063Z,38.30
2018-08-04T10:40:05.007Z,38.69
2018-08-04T10:41:05.000Z,38.85
2018-08-04T10:42:04.979Z,38.92
2018-08-04T10:43:04.979Z,38.55
2018-08-04T10:44:05.249Z,38.89
2018-08-04T10:45:04.955Z,38.91
2018-08-04T10:46:04.946Z,39.19
2018-08-04T10:47:04.946Z,38.20
2018-08-04T10:48:04.785Z,37.32
2018-08-04T10:49:04.947Z,37.20
2018-08-04T10:50:04.976Z,37.72
2018-08-04T10:51:04.906Z,37.87
2018-08-04T10:52:04.902Z,37.98
2018-08-04T10:53:04.899Z,38.25
2018-08-04T10:54:04.953Z,38.32
2018-08-04T10:55:04.888Z,38.57
2018-08-04T10:56:04.947Z,38.79
2018-08-04T10:57:04.919Z,38.91
2018-08-04T10:58:04.711Z,39.11
2018-08-04T10:59:04.756Z,39.09
2018-08-04T11:00:04.848Z,38.50
2018-08-04T11:01:04.897Z,37.87
2018-08-04T11:02:04.836Z,37.38
2018-08-04T11:03:04.833Z,37.04
2018-08-04T11:04:04.844Z,36.94
2018-08-04T11:05:04.818Z,37.19
2018-08-04T11:06:05.004Z,37.54
2018-08-04T11:07:04.813Z,37.55
2018-08-04T11:08:04.780Z,37.50
2018-08-04T11:09:04.774Z,37.31
2018-08-04T11:10:04.609Z,37.07
2018-08-04T11:11:04.769Z,36.91
2018-08-04T11:12:05.023Z,37.10
2018-08-04T11:13:04.760Z,36.76
2018-08-04T11:14:04.747Z,36.09
2018-08-04T11:15:04.729Z,35.76
2018-08-04T11:16:04.718Z,35.76
2018-08-04T11:17:04.716Z,35.75
2018-08-04T11:18:04.801Z,35.61
2018-08-04T11:19:04.701Z,35.47
2018-08-04T11:20:04.580Z,35.34
2018-08-04T11:21:04.695Z,35.19
2018-08-04T11:22:04.698Z,34.97
2018-08-04T11:23:04.851Z,34.97
2018-08-04T11:24:04.712Z,35.07
2018-08-04T11:25:04.672Z,35.12
2018-08-04T11:26:04.647Z,34.85
2018-08-04T11:27:04.643Z,34.91
2018-08-04T11:28:04.637Z,34.80
2018-08-04T11:29:04.723Z,34.48
2018-08-04T11:30:04.455Z,34.35
2018-08-04T11:31:04.617Z,34.52
2018-08-04T11:32:04.605Z,34.55
2018-08-04T11:33:04.590Z,34.62
2018-08-04T11:34:04.786Z,34.57
2018-08-04T11:35:04.583Z,34.55
2018-08-04T11:36:05.564Z,34.60
2018-08-04T11:37:04.566Z,34.50
2018-08-04T11:38:04.560Z,34.25
2018-08-04T11:42:33.935Z,34.25
2018-08-04T11:43:21.743Z,34.34
2018-08-04T11:45:39.178Z,34.35
2018-08-04T14:01:31.490Z,33.42
2018-08-04T14:02:31.496Z,33.44
2018-08-04T14:03:31.685Z,33.55
2018-08-04T14:04:31.642Z,33.62
2018-08-04T14:05:32.564Z,33.66
2018-08-04T14:06:31.577Z,33.36
2018-08-04T14:07:31.622Z,33.26
2018-08-04T14:08:32.167Z,33.19
2018-08-04T14:09:31.683Z,33.24
2018-08-04T14:10:31.319Z,33.19
2018-08-04T14:11:31.375Z,33.16
2018-08-04T14:12:31.325Z,33.16
2018-08-04T14:13:31.271Z,32.75
2018-08-04T14:14:32.065Z,32.55
2018-08-04T14:15:31.253Z,32.60
2018-08-04T14:16:31.226Z,32.32
2018-08-04T14:17:31.326Z,32.38
2018-08-04T14:18:31.247Z,32.27
2018-08-04T14:19:31.197Z,31.78
2018-08-04T14:20:31.253Z,31.74
2018-08-04T14:21:32.163Z,31.71
2018-08-04T14:22:31.307Z,31.74
2018-08-04T14:23:31.359Z,31.81
2018-08-04T14:24:42.761Z,32.05
2018-08-04T14:26:41.100Z,32.38
2018-08-04T14:27:41.314Z,32.57
2018-08-04T14:28:41.427Z,32.55
2018-08-04T14:29:41.241Z,32.63
2018-08-04T14:30:41.198Z,32.65
2018-08-04T14:31:41.257Z,32.61
2018-08-04T14:32:41.198Z,32.51
2018-08-04T14:33:41.197Z,32.46
2018-08-04T14:34:41.242Z,32.46
2018-08-04T14:35:41.175Z,32.33
2018-08-04T14:36:41.158Z,32.36
2018-08-04T14:37:41.124Z,32.57
2018-08-04T14:39:58.043Z,32.80
2018-08-04T14:40:57.984Z,32.75
2018-08-04T14:41:57.985Z,32.69
2018-08-04T14:42:57.918Z,32.79
2018-08-04T14:43:57.946Z,32.58
2018-08-04T14:44:57.991Z,32.55
2018-08-04T14:46:52.279Z,32.45
2018-08-04T14:47:52.351Z,32.42
2018-08-04T14:48:52.348Z,32.33
2018-08-04T14:50:54.225Z,32.21
2018-08-04T19:04:32.354Z,29.03
2018-08-04T19:05:32.338Z,29.04
2018-08-04T19:06:32.270Z,28.93
2018-08-04T19:07:32.265Z,28.89
2018-08-04T19:08:32.249Z,28.90
2018-08-04T19:09:32.238Z,28.89
2018-08-04T19:10:32.273Z,28.89
2018-08-04T19:11:32.129Z,28.87
2018-08-04T19:12:32.044Z,28.79
2018-08-04T19:13:32.203Z,28.74
2018-08-04T19:14:32.203Z,28.83
2018-08-04T19:15:35.394Z,28.68
2018-08-04T19:19:31.475Z,28.77
2018-08-04T19:20:22.765Z,28.69
2018-08-04T19:21:23.076Z,28.68
2018-08-04T19:22:22.776Z,28.69
2018-08-04T19:23:32.341Z,28.62
2018-08-04T19:24:22.711Z,28.68
2018-08-04T19:25:24.594Z,28.64
2018-08-04T19:26:36.379Z,28.71
2018-08-04T19:27:26.010Z,28.65
2018-08-04T19:28:23.773Z,28.64
2018-08-04T19:29:22.786Z,28.66
2018-08-04T19:30:27.572Z,28.71
2018-08-04T19:31:27.726Z,28.71
2018-08-04T19:32:22.766Z,28.65
2018-08-04T19:33:22.700Z,28.71
2018-08-04T19:34:23.521Z,28.68
2018-08-04T19:35:22.586Z,28.72
2018-08-04T19:36:22.636Z,28.86
2018-08-04T19:37:25.955Z,28.90
2018-08-04T19:38:28.029Z,28.96
2018-08-04T19:39:33.839Z,29.00
2018-08-04T19:40:34.633Z,28.93
2018-08-04T19:41:22.937Z,28.89
2018-08-04T19:42:23.548Z,28.94
2018-08-04T19:43:22.543Z,28.90
2018-08-04T19:44:22.533Z,28.90
2018-08-04T19:45:27.113Z,28.80
2018-08-04T19:46:35.254Z,28.86
2018-08-04T19:47:23.463Z,28.68
2018-08-04T19:48:24.265Z,28.66
2018-08-04T19:49:24.022Z,28.66
2018-08-04T19:50:27.996Z,28.64
2018-08-04T19:51:22.726Z,28.64
2018-08-04T19:52:27.487Z,28.69
2018-08-04T19:53:29.129Z,28.59
2018-08-04T19:54:23.090Z,28.59
2018-08-04T19:55:33.144Z,28.54
2018-08-04T19:56:22.468Z,28.65
2018-08-04T19:57:33.272Z,28.54
2018-08-04T19:58:22.556Z,28.56
2018-08-04T19:59:27.367Z,28.57
2018-08-04T20:00:22.390Z,28.50
2018-08-04T20:01:33.170Z,28.56
2018-08-04T20:02:22.598Z,28.46
2018-08-04T20:03:22.690Z,28.52
2018-08-04T20:10:06.393Z,28.34
2018-08-04T20:11:07.380Z,28.38
2018-08-04T20:12:14.318Z,28.34
2018-08-04T20:13:23.309Z,28.37
2018-08-04T20:14:13.393Z,28.28
2018-08-04T20:15:06.541Z,28.31
2018-08-04T20:16:17.238Z,28.32
2018-08-04T20:17:06.455Z,28.38
2018-08-04T20:18:13.092Z,28.34
2018-08-04T20:19:07.494Z,28.43
2018-08-04T21:25:51.018Z,27.85
2018-08-04T21:26:51.041Z,27.87
2018-08-04T21:27:50.946Z,27.83
2018-08-04T21:28:50.874Z,27.70
2018-08-04T21:29:51.026Z,27.49
2018-08-04T21:30:50.935Z,26.93
2018-08-04T21:31:50.865Z,26.65
2018-08-04T21:32:50.856Z,26.27
2018-08-04T21:33:50.917Z,26.05
2018-08-04T21:34:50.918Z,25.66
2018-08-04T21:35:50.906Z,25.36
2018-08-04T21:36:50.832Z,24.94
2018-08-04T21:37:50.852Z,24.79
2018-08-04T21:38:50.993Z,24.63
2018-08-04T21:39:50.761Z,24.55
2018-08-04T21:40:50.811Z,24.41
2018-08-04T21:41:50.795Z,24.38
2018-08-04T21:42:50.770Z,24.36
2018-08-04T21:43:50.749Z,24.29
2018-08-04T21:44:50.795Z,24.29
2018-08-04T21:45:50.832Z,24.28
2018-08-04T21:46:50.750Z,24.21
2018-08-04T21:47:50.665Z,24.28
2018-08-04T21:48:50.689Z,24.28
2018-08-04T21:49:50.730Z,24.18
2018-08-04T21:50:50.472Z,24.34
2018-08-04T21:51:50.467Z,24.18
2018-08-04T21:52:50.466Z,24.22
2018-08-04T21:53:50.444Z,24.18
2018-08-04T21:54:50.554Z,24.19
2018-08-04T21:55:50.431Z,24.15
2018-08-04T21:56:50.416Z,24.11
2018-08-04T21:57:50.630Z,24.11
2018-08-04T21:58:50.659Z,24.18
2018-08-04T21:59:50.744Z,24.31
2018-08-04T22:00:52.379Z,24.28
2018-08-04T22:01:50.627Z,24.37
2018-08-04T22:02:51.219Z,24.40
2018-08-04T22:03:50.604Z,24.41
2018-08-04T22:05:01.570Z,24.41
2018-08-04T22:05:50.723Z,24.23
2018-08-04T22:06:52.753Z,24.26
2018-08-04T22:08:02.039Z,24.33
2018-08-04T22:08:50.456Z,24.16
2018-08-04T22:10:02.655Z,24.18
2018-08-04T22:10:52.196Z,24.18
2018-08-04T22:11:50.246Z,24.15
2018-08-04T22:12:50.298Z,24.16
2018-08-04T22:13:50.222Z,24.15
2018-08-04T22:14:53.134Z,24.13
2018-08-04T22:15:55.323Z,24.18
2018-08-04T22:16:50.198Z,24.21
2018-08-04T22:17:50.186Z,24.15
2018-08-04T22:18:50.341Z,24.22
2018-08-04T22:19:50.329Z,24.19
2018-08-04T22:20:50.343Z,24.13
2018-08-04T22:21:50.360Z,24.16
2018-08-04T22:22:50.285Z,24.19
2018-08-04T22:23:50.279Z,24.19
2018-08-04T22:24:50.107Z,24.15
2018-08-04T22:25:50.265Z,24.18
2018-08-04T22:26:50.278Z,24.16
2018-08-04T22:27:50.619Z,24.18
2018-08-04T22:28:50.236Z,24.16
2018-08-04T22:29:50.306Z,24.26
